createdAt,value
2018-02-10T00:00:30.096Z,3.22
2018-02-10T00:03:05.832Z,3.10
2018-02-10T00:05:37.775Z,3.26
2018-02-10T00:08:06.068Z,3.28
2018-02-10T00:10:34.187Z,3.20
2018-02-10T00:13:10.098Z,3.15
2018-02-10T00:15:39.230Z,3.13
2018-02-10T00:18:11.389Z,3.23
2018-02-10T00:20:39.529Z,3.25
2018-02-10T00:23:07.656Z,3.17
2018-02-10T00:25:35.755Z,3.08
2018-02-10T00:28:10.126Z,3.02
2018-02-10T00:30:38.260Z,2.92
2018-02-10T00:33:10.055Z,2.93
2018-02-10T00:35:38.226Z,3.09
2018-02-10T00:38:07.350Z,3.03
2018-02-10T00:40:35.447Z,3.24
2018-02-10T00:43:05.536Z,3.17
2018-02-10T00:45:35.655Z,3.29
2018-02-10T00:48:07.070Z,3.27
2018-02-10T00:50:35.186Z,3.34
2018-02-10T00:53:03.290Z,3.37
2018-02-10T00:55:31.435Z,3.27
2018-02-10T00:57:59.625Z,3.13
2018-02-10T01:00:27.823Z,3.22
2018-02-10T01:02:55.942Z,3.29
2018-02-10T01:05:24.083Z,3.29
2018-02-10T01:07:52.183Z,3.44
2018-02-10T01:10:20.298Z,3.48
2018-02-10T01:12:56.108Z,3.47
2018-02-10T01:15:24.208Z,3.35
2018-02-10T01:17:52.344Z,3.07
2018-02-10T01:20:20.452Z,3.09
2018-02-10T01:22:48.612Z,3.28
2018-02-10T01:25:16.736Z,3.18
2018-02-10T01:27:44.841Z,3.20
2018-02-10T01:30:12.964Z,3.29
2018-02-10T01:32:41.093Z,3.19
2018-02-10T01:35:09.213Z,3.38
2018-02-10T01:37:37.333Z,3.30
2018-02-10T01:40:05.477Z,3.21
2018-02-10T01:42:33.574Z,3.11
2018-02-10T01:45:01.686Z,3.15
2018-02-10T01:47:29.817Z,3.32
2018-02-10T01:50:09.756Z,3.25
2018-02-10T01:52:37.880Z,3.17
2018-02-10T01:55:05.984Z,3.23
2018-02-10T01:57:34.121Z,3.15
2018-02-10T02:00:02.254Z,3.27
2018-02-10T02:02:30.353Z,3.17
2018-02-10T02:04:58.477Z,3.18
2018-02-10T02:07:26.582Z,3.03
2018-02-10T02:09:54.683Z,3.01
2018-02-10T02:12:22.879Z,3.21
2018-02-10T02:14:51.000Z,3.12
2018-02-10T02:17:19.180Z,3.18
2018-02-10T02:19:47.309Z,3.12
2018-02-10T02:22:15.416Z,2.93
2018-02-10T02:24:43.548Z,3.05
2018-02-10T02:27:11.654Z,3.01
2018-02-10T02:29:39.776Z,3.05
2018-02-10T02:32:07.879Z,3.19
2018-02-10T02:34:36.005Z,3.23
2018-02-10T02:37:04.116Z,3.04
2018-02-10T02:39:32.251Z,3.11
2018-02-10T02:42:00.374Z,3.07
2018-02-10T02:44:28.547Z,3.07
2018-02-10T02:46:56.662Z,3.24
2018-02-10T02:49:24.790Z,3.22
2018-02-10T02:51:52.923Z,3.09
2018-02-10T02:54:21.042Z,3.34
2018-02-10T02:56:49.155Z,3.29
2018-02-10T02:59:17.255Z,3.48
2018-02-10T03:01:45.393Z,3.50
2018-02-10T03:04:13.490Z,3.44
2018-02-10T03:06:41.641Z,3.33
2018-02-10T03:09:09.749Z,3.47
2018-02-10T03:11:37.865Z,3.46
2018-02-10T03:14:05.985Z,3.58
2018-02-10T03:16:34.089Z,3.50
2018-02-10T03:19:02.202Z,3.50
2018-02-10T03:21:30.327Z,3.50
2018-02-10T03:23:58.460Z,3.40
2018-02-10T03:26:26.577Z,3.56
2018-02-10T03:28:54.694Z,3.53
2018-02-10T03:31:22.816Z,3.56
2018-02-10T03:33:50.954Z,3.52
2018-02-10T03:36:19.075Z,3.65
2018-02-10T03:38:47.179Z,3.65
2018-02-10T03:41:15.296Z,3.66
2018-02-10T03:43:43.410Z,3.52
2018-02-10T03:46:11.520Z,3.74
2018-02-10T03:48:39.662Z,3.67
2018-02-10T03:51:07.786Z,3.67
2018-02-10T03:53:35.893Z,3.70
2018-02-10T03:56:03.995Z,3.73
2018-02-10T03:58:32.107Z,3.75
2018-02-10T04:01:00.230Z,3.68
2018-02-10T04:03:28.353Z,3.58
2018-02-10T04:05:56.452Z,3.66
2018-02-10T04:08:24.584Z,3.69
2018-02-10T04:10:52.698Z,3.62
2018-02-10T04:13:20.844Z,3.59
2018-02-10T04:15:49.002Z,3.64
2018-02-10T04:18:17.103Z,3.55
2018-02-10T04:20:45.241Z,3.76
2018-02-10T04:23:13.350Z,3.65
2018-02-10T04:25:41.484Z,3.50
2018-02-10T04:28:09.604Z,3.54
2018-02-10T04:30:37.730Z,3.50
2018-02-10T04:33:05.849Z,3.62
2018-02-10T04:35:33.954Z,3.73
2018-02-10T04:38:02.122Z,3.57
2018-02-10T04:40:30.231Z,3.71
2018-02-10T04:42:58.342Z,3.75
2018-02-10T04:45:26.465Z,3.74
2018-02-10T04:47:54.592Z,3.71
2018-02-10T04:50:22.718Z,3.86
2018-02-10T04:52:50.853Z,3.70
2018-02-10T04:55:18.975Z,3.61
2018-02-10T04:57:47.097Z,3.66
2018-02-10T05:00:15.241Z,3.67
2018-02-10T05:02:43.334Z,3.72
2018-02-10T05:05:11.468Z,3.65
2018-02-10T05:07:39.574Z,3.85
2018-02-10T05:10:07.683Z,3.76
2018-02-10T05:12:35.808Z,3.77
2018-02-10T05:15:03.937Z,3.82
2018-02-10T05:17:32.066Z,3.44
2018-02-10T05:20:00.182Z,3.43
2018-02-10T05:22:28.299Z,3.35
2018-02-10T05:24:56.434Z,3.43
2018-02-10T05:27:24.556Z,3.42
2018-02-10T05:29:52.689Z,3.58
2018-02-10T05:32:20.810Z,3.74
2018-02-10T05:34:48.922Z,3.64
2018-02-10T05:37:17.068Z,3.59
2018-02-10T05:39:45.172Z,3.68
2018-02-10T05:42:13.343Z,3.65
2018-02-10T05:44:41.533Z,3.50
2018-02-10T05:47:09.645Z,3.44
2018-02-10T05:49:37.832Z,3.49
2018-02-10T05:52:05.935Z,3.45
2018-02-10T05:54:34.090Z,3.57
2018-02-10T05:57:02.171Z,3.50
2018-02-10T05:59:30.322Z,3.67
2018-02-10T06:01:58.432Z,3.74
2018-02-10T06:04:26.557Z,3.85
2018-02-10T06:06:54.696Z,3.72
2018-02-10T06:09:22.810Z,3.88
2018-02-10T06:11:50.936Z,3.95
2018-02-10T06:14:19.052Z,3.86
2018-02-10T06:16:47.180Z,3.77
2018-02-10T06:19:15.288Z,3.84
2018-02-10T06:21:43.992Z,3.83
2018-02-10T06:24:12.114Z,3.84
2018-02-10T06:26:40.231Z,3.88
2018-02-10T06:29:08.344Z,3.72
2018-02-10T06:31:36.583Z,3.82
2018-02-10T06:34:04.667Z,3.84
2018-02-10T06:36:32.787Z,3.81
2018-02-10T06:39:00.939Z,3.75
2018-02-10T06:41:29.083Z,3.85
2018-02-10T06:43:57.198Z,3.92
2018-02-10T06:46:25.614Z,3.93
2018-02-10T06:48:53.753Z,4.11
2018-02-10T06:51:21.858Z,3.96
2018-02-10T06:53:49.981Z,4.03
2018-02-10T06:56:18.097Z,3.89
2018-02-10T06:58:46.198Z,4.04
2018-02-10T07:01:14.332Z,3.91
2018-02-10T07:03:42.461Z,3.75
2018-02-10T07:06:10.566Z,3.77
2018-02-10T07:08:38.703Z,3.90
2018-02-10T07:11:06.799Z,3.86
2018-02-10T07:13:34.924Z,3.83
2018-02-10T07:16:03.047Z,3.93
2018-02-10T07:18:31.168Z,3.96
2018-02-10T07:20:59.279Z,3.98
2018-02-10T07:23:27.394Z,3.98
2018-02-10T07:25:55.526Z,3.94
2018-02-10T07:28:23.647Z,4.00
2018-02-10T07:30:51.762Z,3.90
2018-02-10T07:33:19.990Z,3.83
2018-02-10T07:35:48.089Z,3.99
2018-02-10T07:38:16.210Z,3.95
2018-02-10T07:40:44.324Z,3.88
2018-02-10T07:43:12.439Z,3.86
2018-02-10T07:45:40.568Z,3.92
2018-02-10T07:48:08.675Z,3.69
2018-02-10T07:50:36.798Z,3.86
2018-02-10T07:53:04.924Z,3.81
2018-02-10T07:55:33.043Z,3.86
2018-02-10T07:58:01.182Z,4.10
2018-02-10T08:00:29.295Z,3.81
2018-02-10T08:02:57.403Z,3.82
2018-02-10T08:05:25.510Z,3.82
2018-02-10T08:07:53.628Z,3.93
2018-02-10T08:10:21.771Z,3.70
2018-02-10T08:12:49.870Z,3.75
2018-02-10T08:15:18.005Z,3.74
2018-02-10T08:17:46.140Z,3.83
2018-02-10T08:20:14.224Z,3.81
2018-02-10T08:22:42.392Z,3.91
2018-02-10T08:25:10.508Z,4.03
2018-02-10T08:27:38.658Z,3.89
2018-02-10T08:30:06.762Z,3.83
2018-02-10T08:32:34.917Z,3.85
2018-02-10T08:35:03.025Z,3.93
2018-02-10T08:37:31.162Z,3.81
2018-02-10T08:39:59.281Z,3.82
2018-02-10T08:42:27.391Z,3.82
2018-02-10T08:44:55.521Z,3.81
2018-02-10T08:47:23.627Z,3.74
2018-02-10T08:49:51.759Z,3.62
2018-02-10T08:52:19.884Z,3.84
2018-02-10T08:54:48.011Z,3.86
2018-02-10T08:57:16.139Z,3.87
2018-02-10T08:59:44.238Z,4.00
2018-02-10T09:02:12.382Z,3.87
2018-02-10T09:04:40.501Z,3.93
2018-02-10T09:07:08.618Z,3.97
2018-02-10T09:09:36.742Z,4.09
2018-02-10T09:12:04.857Z,3.90
2018-02-10T09:14:32.991Z,4.07
2018-02-10T09:17:01.185Z,4.20
2018-02-10T09:19:29.338Z,4.14
2018-02-10T09:21:57.895Z,4.15
2018-02-10T09:24:26.040Z,4.22
2018-02-10T09:26:54.182Z,4.18
2018-02-10T09:29:22.302Z,4.71
2018-02-10T09:31:50.424Z,4.29
2018-02-10T09:34:18.557Z,4.38
2018-02-10T09:36:46.677Z,4.27
2018-02-10T09:39:15.707Z,4.30
2018-02-10T09:41:44.146Z,4.30
2018-02-10T09:44:12.331Z,4.39
2018-02-10T09:46:40.441Z,4.39
2018-02-10T09:49:08.561Z,4.27
2018-02-10T09:51:36.678Z,4.13
2018-02-10T09:54:04.798Z,4.21
2018-02-10T09:56:32.922Z,4.26
2018-02-10T09:59:01.067Z,4.32
2018-02-10T10:01:29.193Z,4.37
2018-02-10T10:03:57.307Z,4.35
2018-02-10T10:06:25.428Z,6.00
2018-02-10T10:08:53.554Z,4.78
2018-02-10T10:11:21.680Z,4.76
2018-02-10T10:13:49.930Z,4.50
2018-02-10T10:16:18.047Z,4.51
2018-02-10T10:18:46.198Z,4.36
2018-02-10T10:21:14.309Z,4.53
2018-02-10T10:23:42.452Z,4.56
2018-02-10T10:26:10.579Z,4.67
2018-02-10T10:28:38.706Z,4.63
2018-02-10T10:31:06.831Z,4.51
2018-02-10T10:33:34.949Z,4.61
2018-02-10T10:36:03.082Z,4.66
2018-02-10T10:38:31.194Z,4.79
2018-02-10T10:40:59.303Z,4.74
2018-02-10T10:43:27.443Z,4.63
2018-02-10T10:45:55.572Z,4.77
2018-02-10T10:48:23.701Z,4.64
2018-02-10T10:50:51.803Z,4.81
2018-02-10T10:53:19.925Z,4.92
2018-02-10T10:55:48.093Z,4.78
2018-02-10T10:58:16.217Z,4.87
2018-02-10T11:00:44.354Z,4.81
2018-02-10T11:03:12.450Z,4.66
2018-02-10T11:05:40.586Z,5.61
2018-02-10T11:08:12.068Z,4.89
2018-02-10T11:10:40.221Z,4.91
2018-02-10T11:13:08.329Z,4.93
2018-02-10T11:15:36.462Z,4.93
2018-02-10T11:18:04.580Z,4.65
2018-02-10T11:20:32.711Z,4.66
2018-02-10T11:23:00.796Z,4.88
2018-02-10T11:25:28.941Z,4.77
2018-02-10T11:27:57.062Z,4.72
2018-02-10T11:30:25.193Z,4.94
2018-02-10T11:32:53.309Z,4.84
2018-02-10T11:35:21.428Z,4.98
2018-02-10T11:37:49.563Z,5.48
2018-02-10T11:40:21.337Z,5.21
2018-02-10T11:42:49.447Z,5.14
2018-02-10T11:45:17.567Z,5.14
2018-02-10T11:47:45.694Z,5.38
2018-02-10T11:50:13.819Z,5.19
2018-02-10T11:52:41.946Z,5.05
2018-02-10T11:55:10.058Z,5.04
2018-02-10T11:57:38.205Z,5.64
2018-02-10T12:00:06.925Z,5.30
2018-02-10T12:02:35.217Z,5.09
2018-02-10T12:05:03.353Z,5.18
2018-02-10T12:07:31.511Z,5.23
2018-02-10T12:09:59.618Z,5.25
2018-02-10T12:12:27.826Z,5.07
2018-02-10T12:14:55.952Z,5.16
2018-02-10T12:17:24.070Z,5.13
2018-02-10T12:19:55.271Z,5.12
2018-02-10T12:22:23.376Z,4.99
2018-02-10T12:24:51.542Z,5.12
2018-02-10T12:27:19.673Z,5.16
2018-02-10T12:29:47.811Z,5.10
2018-02-10T12:32:15.919Z,5.26
2018-02-10T12:34:44.052Z,5.27
2018-02-10T12:37:12.192Z,5.21
2018-02-10T12:39:40.320Z,5.22
2018-02-10T12:42:08.474Z,5.59
2018-02-10T12:44:36.584Z,5.36
2018-02-10T12:47:04.728Z,5.33
2018-02-10T12:49:32.848Z,5.26
2018-02-10T12:52:01.225Z,5.17
2018-02-10T12:54:29.302Z,5.23
2018-02-10T12:56:57.449Z,5.16
2018-02-10T12:59:25.566Z,5.25
2018-02-10T13:01:53.762Z,5.25
2018-02-10T13:04:21.883Z,5.36
2018-02-10T13:06:49.987Z,5.30
2018-02-10T13:09:18.128Z,5.26
2018-02-10T13:11:46.238Z,5.40
2018-02-10T13:14:14.384Z,5.44
2018-02-10T13:16:42.486Z,5.45
2018-02-10T13:19:10.615Z,5.36
2018-02-10T13:21:38.725Z,5.48
2018-02-10T13:24:06.892Z,5.45
2018-02-10T13:26:35.007Z,5.49
2018-02-10T13:29:03.133Z,5.48
2018-02-10T13:31:31.268Z,5.47
2018-02-10T13:33:59.374Z,5.51
2018-02-10T13:36:27.496Z,5.56
2018-02-10T13:38:55.613Z,5.64
2018-02-10T13:41:23.733Z,5.59
2018-02-10T13:43:51.870Z,5.63
2018-02-10T13:46:20.062Z,5.40
2018-02-10T13:48:48.303Z,5.56
2018-02-10T13:51:16.394Z,5.43
2018-02-10T13:53:44.540Z,5.39
2018-02-10T13:56:12.685Z,5.45
2018-02-10T13:58:40.785Z,5.69
2018-02-10T14:01:08.904Z,5.78
2018-02-10T14:03:37.045Z,5.93
2018-02-10T14:06:05.192Z,5.97
2018-02-10T14:08:33.307Z,5.92
2018-02-10T14:11:01.426Z,5.87
2018-02-10T14:13:29.541Z,5.95
2018-02-10T14:15:57.682Z,5.96
2018-02-10T14:18:25.853Z,5.88
2018-02-10T14:20:53.984Z,5.91
2018-02-10T14:23:22.938Z,6.03
2018-02-10T14:25:52.606Z,6.09
2018-02-10T14:28:21.987Z,6.16
2018-02-10T14:30:50.870Z,6.23
2018-02-10T14:33:19.424Z,6.17
2018-02-10T14:35:47.589Z,6.74
2018-02-10T14:38:15.709Z,6.29
2018-02-10T14:40:43.837Z,6.24
2018-02-10T14:43:11.969Z,5.97
2018-02-10T14:45:40.092Z,6.16
2018-02-10T14:48:08.244Z,6.17
2018-02-10T14:50:36.460Z,6.17
2018-02-10T14:53:04.574Z,6.03
2018-02-10T14:55:32.701Z,6.14
2018-02-10T14:58:00.822Z,6.18
2018-02-10T15:00:28.951Z,6.06
2018-02-10T15:02:57.076Z,6.06
2018-02-10T15:05:25.182Z,6.18
2018-02-10T15:07:53.313Z,6.17
2018-02-10T15:10:21.443Z,6.11
2018-02-10T15:12:49.551Z,6.19
2018-02-10T15:15:17.664Z,6.21
2018-02-10T15:17:45.779Z,6.21
2018-02-10T15:20:13.896Z,6.27
2018-02-10T15:22:42.050Z,6.17
2018-02-10T15:25:10.181Z,6.10
2018-02-10T15:27:38.282Z,6.19
2018-02-10T15:30:17.940Z,6.18
2018-02-10T15:32:57.765Z,6.13
2018-02-10T15:35:25.881Z,6.15
2018-02-10T15:37:54.004Z,6.05
2018-02-10T15:40:22.130Z,5.98
2018-02-10T15:42:50.269Z,6.03
2018-02-10T15:45:18.402Z,6.06
2018-02-10T15:47:49.760Z,6.06
2018-02-10T15:50:17.890Z,6.11
2018-02-10T15:52:46.031Z,6.08
2018-02-10T15:55:14.137Z,6.71
2018-02-10T15:57:42.257Z,7.17
2018-02-10T16:00:10.389Z,6.57
2018-02-10T16:02:38.574Z,6.15
2018-02-10T16:05:06.918Z,6.31
2018-02-10T16:07:35.054Z,6.94
2018-02-10T16:10:03.173Z,6.16
2018-02-10T16:12:31.305Z,6.00
2018-02-10T16:14:59.425Z,5.89
2018-02-10T16:17:27.532Z,5.82
2018-02-10T16:19:55.647Z,5.83
2018-02-10T16:22:24.593Z,5.73
2018-02-10T16:24:52.721Z,5.74
2018-02-10T16:27:20.854Z,5.73
2018-02-10T16:29:48.959Z,5.69
2018-02-10T16:32:17.180Z,5.66
2018-02-10T16:34:45.341Z,5.55
2018-02-10T16:37:13.469Z,5.56
2018-02-10T16:39:41.589Z,5.46
2018-02-10T16:42:09.699Z,5.55
2018-02-10T16:44:37.875Z,5.38
2018-02-10T16:47:05.992Z,5.37
2018-02-10T16:49:34.118Z,5.25
2018-02-10T16:52:02.235Z,5.12
2018-02-10T16:54:30.349Z,5.21
2018-02-10T16:56:58.466Z,5.26
2018-02-10T16:59:26.593Z,5.13
2018-02-10T17:01:54.714Z,4.89
2018-02-10T17:04:22.840Z,4.87
2018-02-10T17:06:50.946Z,4.77
2018-02-10T17:09:19.080Z,4.88
2018-02-10T17:11:47.238Z,4.89
2018-02-10T17:14:15.416Z,4.75
2018-02-10T17:16:43.491Z,4.73
2018-02-10T17:19:11.624Z,4.64
2018-02-10T17:21:39.761Z,4.57
2018-02-10T17:24:07.875Z,4.69
2018-02-10T17:26:36.062Z,4.53
2018-02-10T17:29:04.163Z,4.41
2018-02-10T17:31:32.292Z,4.62
2018-02-10T17:34:00.419Z,4.62
2018-02-10T17:36:28.544Z,4.39
2018-02-10T17:38:56.656Z,4.49
2018-02-10T17:41:24.787Z,4.46
2018-02-10T17:43:52.905Z,4.44
2018-02-10T17:46:21.025Z,4.51
2018-02-10T17:48:49.183Z,4.47
2018-02-10T17:51:17.298Z,4.47
2018-02-10T17:53:45.432Z,4.46
2018-02-10T17:56:13.538Z,4.44
2018-02-10T17:58:41.692Z,4.41
2018-02-10T18:01:10.016Z,4.26
2018-02-10T18:03:38.182Z,4.29
2018-02-10T18:06:06.300Z,4.19
2018-02-10T18:08:34.436Z,4.21
2018-02-10T18:11:02.559Z,4.33
2018-02-10T18:13:30.667Z,4.31
2018-02-10T18:15:58.798Z,4.27
2018-02-10T18:18:26.906Z,4.16
2018-02-10T18:20:55.037Z,4.05
2018-02-10T18:23:23.141Z,4.14
2018-02-10T18:25:51.282Z,4.08
2018-02-10T18:28:19.397Z,4.19
2018-02-10T18:30:47.516Z,4.02
2018-02-10T18:33:15.682Z,3.93
2018-02-10T18:35:43.831Z,3.96
2018-02-10T18:38:11.963Z,3.83
2018-02-10T18:40:40.068Z,3.80
2018-02-10T18:43:08.187Z,3.84
2018-02-10T18:45:36.320Z,3.80
2018-02-10T18:48:04.464Z,3.84
2018-02-10T18:50:32.555Z,3.83
2018-02-10T18:53:00.667Z,3.70
2018-02-10T18:55:28.790Z,3.64
2018-02-10T18:57:56.908Z,3.68
2018-02-10T19:00:25.658Z,3.74
2018-02-10T19:02:53.754Z,3.70
2018-02-10T19:05:21.866Z,3.81
2018-02-10T19:07:49.976Z,3.87
2018-02-10T19:10:18.116Z,3.87
2018-02-10T19:12:46.200Z,3.95
2018-02-10T19:15:14.405Z,3.85
2018-02-10T19:17:42.517Z,3.90
2018-02-10T19:20:11.533Z,3.90
2018-02-10T19:22:40.056Z,3.90
2018-02-10T19:25:08.174Z,3.87
2018-02-10T19:27:36.285Z,3.86
2018-02-10T19:30:04.397Z,3.96
2018-02-10T19:32:32.524Z,4.06
2018-02-10T19:35:00.647Z,4.70
2018-02-10T19:37:28.772Z,4.28
2018-02-10T19:39:56.888Z,3.90
2018-02-10T19:42:25.006Z,3.83
2018-02-10T19:44:53.126Z,3.80
2018-02-10T19:47:21.242Z,3.85
2018-02-10T19:49:49.351Z,3.74
2018-02-10T19:52:17.474Z,3.72
2018-02-10T19:54:45.591Z,3.74
2018-02-10T19:57:13.699Z,3.83
2018-02-10T19:59:41.816Z,3.72
2018-02-10T20:02:09.939Z,3.79
2018-02-10T20:04:38.468Z,3.65
2018-02-10T20:07:06.598Z,3.66
2018-02-10T20:09:34.694Z,3.70
2018-02-10T20:12:02.811Z,3.67
2018-02-10T20:14:30.928Z,3.70
2018-02-10T20:16:59.056Z,3.69
2018-02-10T20:19:27.221Z,3.68
2018-02-10T20:21:55.335Z,3.81
2018-02-10T20:24:23.436Z,3.65
2018-02-10T20:26:51.544Z,3.63
2018-02-10T20:29:19.731Z,3.81
2018-02-10T20:31:47.846Z,3.63
2018-02-10T20:34:15.976Z,3.59
2018-02-10T20:36:44.086Z,3.65
2018-02-10T20:39:12.218Z,3.64
2018-02-10T20:41:40.396Z,3.58
2018-02-10T20:44:08.503Z,3.61
2018-02-10T20:46:36.615Z,3.60
2018-02-10T20:49:04.729Z,3.53
2018-02-10T20:51:32.846Z,3.59
2018-02-10T20:54:00.960Z,3.51
2018-02-10T20:56:29.069Z,3.57
2018-02-10T20:58:57.171Z,3.51
2018-02-10T21:01:25.305Z,3.44
2018-02-10T21:03:53.433Z,3.46
2018-02-10T21:06:21.527Z,3.44
2018-02-10T21:08:49.649Z,3.40
2018-02-10T21:11:17.777Z,3.40
2018-02-10T21:13:48.812Z,3.40
2018-02-10T21:16:17.062Z,3.41
2018-02-10T21:18:45.185Z,3.41
2018-02-10T21:21:13.353Z,3.38
2018-02-10T21:23:41.486Z,3.58
2018-02-10T21:26:09.594Z,3.51
2018-02-10T21:28:37.701Z,3.48
2018-02-10T21:31:05.813Z,3.50
2018-02-10T21:33:33.914Z,3.49
2018-02-10T21:36:02.042Z,3.54
2018-02-10T21:38:30.152Z,3.48
2018-02-10T21:40:58.274Z,3.43
2018-02-10T21:43:26.395Z,3.43
2018-02-10T21:45:54.509Z,3.41
2018-02-10T21:48:22.615Z,3.42
2018-02-10T21:50:50.770Z,3.38
2018-02-10T21:53:18.877Z,3.46
2018-02-10T21:55:47.032Z,3.42
2018-02-10T21:58:15.139Z,3.41
2018-02-10T22:00:43.252Z,3.38
2018-02-10T22:03:11.405Z,3.34
2018-02-10T22:05:39.485Z,3.34
2018-02-10T22:08:07.590Z,3.40
2018-02-10T22:10:35.957Z,3.38
2018-02-10T22:13:04.055Z,3.33
2018-02-10T22:15:32.167Z,3.41
2018-02-10T22:18:00.292Z,3.35
2018-02-10T22:20:28.420Z,3.39
2018-02-10T22:22:56.571Z,3.44
2018-02-10T22:25:24.650Z,3.41
2018-02-10T22:27:52.764Z,3.36
2018-02-10T22:30:20.880Z,3.38
2018-02-10T22:32:49.307Z,3.38
2018-02-10T22:35:17.429Z,3.45
2018-02-10T22:37:45.539Z,3.37
2018-02-10T22:40:13.681Z,3.40
2018-02-10T22:42:41.819Z,3.39
2018-02-10T22:45:13.565Z,3.42
2018-02-10T22:47:41.700Z,3.45
2018-02-10T22:50:09.789Z,3.47
2018-02-10T22:52:37.921Z,3.46
2018-02-10T22:55:06.052Z,3.47
2018-02-10T22:57:34.141Z,3.52
2018-02-10T23:00:02.236Z,3.51
2018-02-10T23:02:30.336Z,3.48
2018-02-10T23:04:58.442Z,3.52
2018-02-10T23:07:26.544Z,3.47
2018-02-10T23:09:54.678Z,3.48
2018-02-10T23:12:22.771Z,3.41
2018-02-10T23:14:50.891Z,3.46
2018-02-10T23:17:18.999Z,3.42
2018-02-10T23:19:47.117Z,3.47
2018-02-10T23:22:15.314Z,3.46
2018-02-10T23:24:43.451Z,3.45
2018-02-10T23:27:11.574Z,3.43
2018-02-10T23:29:39.739Z,3.46
2018-02-10T23:32:07.903Z,3.49
2018-02-10T23:34:36.045Z,3.49
2018-02-10T23:37:04.134Z,3.48
2018-02-10T23:39:32.242Z,3.51
2018-02-10T23:42:00.373Z,3.47
2018-02-10T23:44:28.519Z,3.55
2018-02-10T23:46:56.607Z,3.57
2018-02-10T23:49:24.722Z,3.48
2018-02-10T23:51:52.840Z,3.58
2018-02-10T23:54:20.968Z,3.58
2018-02-10T23:56:49.169Z,3.51
2018-02-10T23:59:17.255Z,3.54
